createdAt,value
2017-09-03T00:00:59.022Z,11.6
2017-09-03T00:01:59.061Z,11.59
2017-09-03T00:02:59.445Z,11.6
2017-09-03T00:03:59.174Z,11.59
2017-09-03T00:04:58.885Z,11.59
2017-09-03T00:05:58.973Z,11.56
2017-09-03T00:06:59.952Z,11.46
2017-09-03T00:07:59.351Z,11.53
2017-09-03T00:09:00.115Z,11.49
2017-09-03T00:10:00.447Z,11.46
2017-09-03T00:11:00.592Z,11.49
2017-09-03T00:12:01.463Z,11.48
2017-09-03T00:13:01.785Z,11.43
2017-09-03T00:14:02.106Z,11.49
2017-09-03T00:15:02.385Z,11.48
2017-09-03T00:16:02.421Z,11.41
2017-09-03T00:17:02.836Z,11.41
2017-09-03T00:18:02.490Z,11.3
2017-09-03T00:19:02.850Z,11.38
2017-09-03T00:20:02.880Z,11.34
2017-09-03T00:21:02.915Z,11.34
2017-09-03T00:22:02.634Z,11.31
2017-09-03T00:23:02.692Z,11.33
2017-09-03T00:24:03.000Z,11.28
2017-09-03T00:25:02.409Z,11.34
2017-09-03T00:26:03.163Z,11.35
2017-09-03T00:27:02.574Z,11.38
2017-09-03T00:28:02.914Z,11.49
2017-09-03T00:29:03.216Z,11.38
2017-09-03T00:30:03.223Z,11.41
2017-09-03T00:31:03.615Z,11.38
2017-09-03T00:32:03.988Z,11.31
2017-09-03T00:33:04.401Z,11.33
2017-09-03T00:34:04.072Z,11.31
2017-09-03T00:35:04.780Z,11.34
2017-09-03T00:36:04.480Z,11.38
2017-09-03T00:37:04.491Z,11.33
2017-09-03T00:38:04.525Z,11.21
2017-09-03T00:39:04.579Z,11.15
2017-09-03T00:40:04.693Z,11.13
2017-09-03T00:41:04.381Z,11.24
2017-09-03T00:42:04.781Z,11.18
2017-09-03T00:43:04.760Z,11.21
2017-09-03T00:44:04.816Z,11.16
2017-09-03T00:45:05.010Z,11.18
2017-09-03T00:46:04.266Z,11.2
2017-09-03T00:47:04.582Z,11.21
2017-09-03T00:48:05.116Z,11.13
2017-09-03T00:49:04.780Z,11.2
2017-09-03T00:50:05.278Z,11.2
2017-09-03T00:51:05.187Z,11.16
2017-09-03T00:52:05.219Z,11.09
2017-09-03T00:53:05.332Z,11.03
2017-09-03T00:54:04.993Z,11.09
2017-09-03T00:55:05.365Z,11.13
2017-09-03T00:56:05.021Z,11.13
2017-09-03T00:57:05.361Z,11.12
2017-09-03T00:58:05.679Z,11.1
2017-09-03T00:59:05.388Z,11.16
2017-09-03T01:00:06.178Z,11.16
2017-09-03T01:01:06.083Z,11.03
2017-09-03T01:02:05.883Z,10.91
2017-09-03T01:03:06.580Z,10.98
2017-09-03T01:04:06.615Z,11.05
2017-09-03T01:05:06.362Z,10.95
2017-09-03T01:06:06.351Z,10.92
2017-09-03T01:07:06.747Z,10.97
2017-09-03T01:08:06.763Z,10.94
2017-09-03T01:09:06.821Z,10.97
2017-09-03T01:10:06.793Z,10.94
2017-09-03T01:11:06.507Z,11
2017-09-03T01:12:06.614Z,10.97
2017-09-03T01:13:07.307Z,11.06
2017-09-03T01:14:06.744Z,11.03
2017-09-03T01:15:07.370Z,11.06
2017-09-03T01:16:07.091Z,10.97
2017-09-03T01:17:07.443Z,10.98
2017-09-03T01:18:07.503Z,10.88
2017-09-03T01:19:07.507Z,10.88
2017-09-03T01:20:07.521Z,10.83
2017-09-03T01:21:07.572Z,10.79
2017-09-03T01:22:07.579Z,10.75
2017-09-03T01:23:07.611Z,10.85
2017-09-03T01:24:07.322Z,10.87
2017-09-03T01:25:08.122Z,10.8
2017-09-03T01:26:07.760Z,10.75
2017-09-03T01:27:08.075Z,10.66
2017-09-03T01:28:08.110Z,10.72
2017-09-03T01:29:08.186Z,10.73
2017-09-03T01:30:07.818Z,10.69
2017-09-03T01:31:08.229Z,10.7
2017-09-03T01:32:08.209Z,10.7
2017-09-03T01:33:08.300Z,10.67
2017-09-03T01:34:08.321Z,10.72
2017-09-03T01:35:08.349Z,10.7
2017-09-03T01:36:08.455Z,10.72
2017-09-03T01:37:08.390Z,10.72
2017-09-03T01:38:08.413Z,10.73
2017-09-03T01:39:08.532Z,10.69
2017-09-03T01:40:08.582Z,10.73
2017-09-03T01:41:08.226Z,10.73
2017-09-03T01:42:08.584Z,10.65
2017-09-03T01:43:08.272Z,10.57
2017-09-03T01:44:08.321Z,10.55
2017-09-03T01:45:08.743Z,10.52
2017-09-03T01:46:08.430Z,10.54
2017-09-03T01:47:08.973Z,10.65
2017-09-03T01:48:09.342Z,10.67
2017-09-03T01:49:09.062Z,10.66
2017-09-03T01:50:09.143Z,10.55
2017-09-03T01:51:09.428Z,10.59
2017-09-03T01:52:09.500Z,10.59
2017-09-03T01:53:09.811Z,10.44
2017-09-03T01:54:09.845Z,10.58
2017-09-03T01:55:10.198Z,10.51
2017-09-03T01:56:09.877Z,10.59
2017-09-03T01:57:10.620Z,10.46
2017-09-03T01:58:10.637Z,10.51
2017-09-03T01:59:10.040Z,10.54
2017-09-03T02:00:10.360Z,10.52
2017-09-03T02:01:10.757Z,10.57
2017-09-03T02:02:11.099Z,10.55
2017-09-03T02:03:11.524Z,10.57
2017-09-03T02:04:11.958Z,10.54
2017-09-03T02:05:11.633Z,10.57
2017-09-03T02:06:11.293Z,10.47
2017-09-03T02:07:11.574Z,10.47
2017-09-03T02:08:11.630Z,10.47
2017-09-03T02:09:11.728Z,10.51
2017-09-03T02:10:12.000Z,10.47
2017-09-03T02:11:11.741Z,10.38
2017-09-03T02:12:11.472Z,10.42
2017-09-03T02:13:12.161Z,10.41
2017-09-03T02:14:11.898Z,10.39
2017-09-03T02:15:12.607Z,10.55
2017-09-03T02:16:12.365Z,10.52
2017-09-03T02:17:12.326Z,10.51
2017-09-03T02:18:12.966Z,10.46
2017-09-03T02:19:12.693Z,10.46
2017-09-03T02:20:13.030Z,10.52
2017-09-03T02:21:12.746Z,10.58
2017-09-03T02:22:12.793Z,10.52
2017-09-03T02:23:13.104Z,10.46
2017-09-03T02:24:13.156Z,10.55
2017-09-03T02:25:13.171Z,10.33
2017-09-03T02:26:13.230Z,10.38
2017-09-03T02:27:13.230Z,10.39
2017-09-03T02:28:12.944Z,10.52
2017-09-03T02:29:13.350Z,10.44
2017-09-03T02:30:13.327Z,10.42
2017-09-03T02:31:13.064Z,10.47
2017-09-03T02:32:13.134Z,10.55
2017-09-03T02:33:13.796Z,10.44
2017-09-03T02:34:13.496Z,10.57
2017-09-03T02:35:13.818Z,10.44
2017-09-03T02:36:13.534Z,10.47
2017-09-03T02:37:13.298Z,10.41
2017-09-03T02:38:14.267Z,10.46
2017-09-03T02:39:14.335Z,10.39
2017-09-03T02:40:14.372Z,10.35
2017-09-03T02:41:14.102Z,10.51
2017-09-03T02:42:14.436Z,10.41
2017-09-03T02:43:14.468Z,10.51
2017-09-03T02:44:14.478Z,10.49
2017-09-03T02:45:14.506Z,10.51
2017-09-03T02:46:13.953Z,10.58
2017-09-03T02:47:14.964Z,10.59
2017-09-03T02:48:14.705Z,10.52
2017-09-03T02:49:14.731Z,10.52
2017-09-03T02:50:15.404Z,10.46
2017-09-03T02:51:15.097Z,10.51
2017-09-03T02:52:14.793Z,10.41
2017-09-03T02:53:15.530Z,10.42
2017-09-03T02:54:15.880Z,10.44
2017-09-03T02:55:15.594Z,10.51
2017-09-03T02:56:15.684Z,10.35
2017-09-03T02:57:15.727Z,10.57
2017-09-03T02:58:15.730Z,10.49
2017-09-03T02:59:16.100Z,10.51
2017-09-03T03:00:16.092Z,10.47
2017-09-03T03:01:16.109Z,10.52
2017-09-03T03:02:15.611Z,10.55
2017-09-03T03:03:15.566Z,10.44
2017-09-03T03:04:21.239Z,10.41
2017-09-03T03:05:21.630Z,10.42
2017-09-03T03:06:21.397Z,10.47
2017-09-03T03:07:21.752Z,10.44
2017-09-03T03:08:21.732Z,10.49
2017-09-03T03:09:21.761Z,10.54
2017-09-03T03:10:21.934Z,10.58
2017-09-03T03:11:22.506Z,10.55
2017-09-03T03:12:22.526Z,10.54
2017-09-03T03:13:21.960Z,10.55
2017-09-03T03:14:22.629Z,10.57
2017-09-03T03:15:22.104Z,10.55
2017-09-03T03:16:22.435Z,10.46
2017-09-03T03:17:22.827Z,10.44
2017-09-03T03:18:22.535Z,10.46
2017-09-03T03:19:22.552Z,10.51
2017-09-03T03:20:22.867Z,10.38
2017-09-03T03:21:23.532Z,10.38
2017-09-03T03:22:23.285Z,10.49
2017-09-03T03:23:23.945Z,10.35
2017-09-03T03:24:23.624Z,10.51
2017-09-03T03:25:23.993Z,10.52
2017-09-03T03:26:23.984Z,10.31
2017-09-03T03:27:24.346Z,10.35
2017-09-03T03:28:24.047Z,10.26
2017-09-03T03:29:24.080Z,10.29
2017-09-03T03:30:24.447Z,10.32
2017-09-03T03:31:24.482Z,10.29
2017-09-03T03:32:24.814Z,10.29
2017-09-03T03:33:24.511Z,10.25
2017-09-03T03:34:25.183Z,10.2
2017-09-03T03:35:25.213Z,10.14
2017-09-03T03:36:25.120Z,10.2
2017-09-03T03:37:25.274Z,10.07
2017-09-03T03:38:25.015Z,10.05
2017-09-03T03:39:25.336Z,10.02
2017-09-03T03:40:25.680Z,10
2017-09-03T03:41:25.709Z,10.05
2017-09-03T03:42:25.410Z,10.1
2017-09-03T03:43:25.445Z,10.1
2017-09-03T03:44:25.511Z,10.07
2017-09-03T03:45:25.510Z,9.95
2017-09-03T03:46:25.874Z,9.92
2017-09-03T03:47:25.932Z,9.96
2017-09-03T03:48:25.919Z,9.93
2017-09-03T03:49:26.264Z,9.95
2017-09-03T03:50:26.290Z,9.93
2017-09-03T03:51:26.028Z,9.99
2017-09-03T03:52:26.100Z,9.92
2017-09-03T03:53:26.117Z,9.96
2017-09-03T03:54:26.461Z,10.05
2017-09-03T03:55:26.248Z,9.99
2017-09-03T03:56:26.215Z,9.96
2017-09-03T03:57:26.651Z,9.96
2017-09-03T03:58:26.638Z,9.88
2017-09-03T03:59:26.649Z,9.88
2017-09-03T04:00:26.709Z,9.88
2017-09-03T04:01:27.019Z,9.84
2017-09-03T04:02:26.788Z,9.84
2017-09-03T04:03:27.145Z,9.8
2017-09-03T04:04:27.148Z,9.84
2017-09-03T04:05:27.505Z,9.88
2017-09-03T04:06:27.537Z,9.88
2017-09-03T04:07:27.234Z,9.84
2017-09-03T04:08:27.601Z,9.82
2017-09-03T04:09:27.297Z,9.84
2017-09-03T04:10:27.347Z,9.82
2017-09-03T04:11:27.354Z,9.82
2017-09-03T04:12:27.728Z,9.78
2017-09-03T04:13:27.736Z,9.82
2017-09-03T04:14:27.789Z,9.85
2017-09-03T04:15:27.503Z,9.89
2017-09-03T04:16:28.173Z,9.78
2017-09-03T04:17:28.194Z,9.82
2017-09-03T04:18:28.226Z,9.78
2017-09-03T04:19:28.579Z,9.81
2017-09-03T04:20:28.595Z,9.74
2017-09-03T04:21:28.615Z,9.66
2017-09-03T04:22:28.650Z,9.71
2017-09-03T04:23:28.360Z,9.6
2017-09-03T04:24:28.745Z,9.63
2017-09-03T04:25:29.075Z,9.62
2017-09-03T04:26:29.113Z,9.71
2017-09-03T04:27:29.145Z,9.62
2017-09-03T04:28:29.168Z,9.71
2017-09-03T04:29:29.195Z,9.74
2017-09-03T04:30:29.229Z,9.7
2017-09-03T04:31:29.273Z,9.77
2017-09-03T04:32:29.287Z,9.74
2017-09-03T04:33:29.313Z,9.78
2017-09-03T04:34:29.341Z,9.77
2017-09-03T04:35:29.384Z,9.81
2017-09-03T04:36:29.106Z,9.85
2017-09-03T04:37:29.132Z,9.8
2017-09-03T04:38:29.159Z,9.88
2017-09-03T04:39:29.840Z,9.84
2017-09-03T04:40:29.560Z,9.88
2017-09-03T04:41:29.589Z,9.82
2017-09-03T04:42:29.921Z,9.82
2017-09-03T04:43:29.646Z,9.9
2017-09-03T04:44:30.295Z,9.81
2017-09-03T04:45:30.336Z,9.88
2017-09-03T04:46:30.682Z,9.88
2017-09-03T04:47:30.712Z,9.93
2017-09-03T04:48:30.776Z,9.88
2017-09-03T04:49:30.782Z,9.9
2017-09-03T04:50:30.501Z,9.96
2017-09-03T04:51:30.803Z,9.93
2017-09-03T04:52:30.826Z,9.95
2017-09-03T04:53:31.159Z,9.96
2017-09-03T04:54:31.167Z,9.99
2017-09-03T04:55:31.233Z,10.03
2017-09-03T04:56:31.582Z,10.1
2017-09-03T04:57:31.945Z,10.03
2017-09-03T04:58:31.328Z,9.99
2017-09-03T04:59:32.318Z,10.1
2017-09-03T05:00:32.018Z,10.02
2017-09-03T05:01:32.099Z,10.02
2017-09-03T05:02:32.122Z,10.17
2017-09-03T05:03:32.442Z,10.18
2017-09-03T05:04:32.818Z,10.2
2017-09-03T05:05:32.219Z,10.17
2017-09-03T05:06:33.198Z,10.26
2017-09-03T05:07:32.890Z,10.25
2017-09-03T05:08:32.948Z,10.26
2017-09-03T05:09:33.279Z,10.29
2017-09-03T05:10:33.322Z,10.29
2017-09-03T05:11:33.348Z,10.29
2017-09-03T05:12:33.379Z,10.42
2017-09-03T05:13:33.413Z,10.39
2017-09-03T05:14:33.106Z,10.47
2017-09-03T05:15:33.135Z,10.47
2017-09-03T05:16:33.164Z,10.51
2017-09-03T05:17:33.187Z,10.58
2017-09-03T05:18:33.556Z,10.51
2017-09-03T05:19:33.280Z,10.57
2017-09-03T05:20:33.623Z,10.57
2017-09-03T05:21:33.653Z,10.57
2017-09-03T05:22:33.657Z,10.52
2017-09-03T05:23:34.011Z,10.67
2017-09-03T05:24:34.039Z,10.75
2017-09-03T05:25:33.760Z,10.76
2017-09-03T05:26:34.106Z,10.87
2017-09-03T05:27:34.135Z,10.88
2017-09-03T05:28:34.167Z,10.98
2017-09-03T05:29:33.900Z,10.97
2017-09-03T05:30:34.582Z,11.03
2017-09-03T05:31:34.598Z,11.1
2017-09-03T05:32:34.292Z,11.08
2017-09-03T05:33:34.333Z,11.18
2017-09-03T05:34:34.371Z,11.16
2017-09-03T05:35:34.737Z,11.3
2017-09-03T05:36:34.768Z,11.31
2017-09-03T05:37:34.455Z,11.42
2017-09-03T05:38:34.487Z,11.45
2017-09-03T05:39:34.525Z,11.57
2017-09-03T05:40:34.236Z,11.66
2017-09-03T05:41:34.928Z,11.7
2017-09-03T05:42:35.291Z,11.85
2017-09-03T05:43:34.696Z,11.89
2017-09-03T05:44:35.702Z,11.95
2017-09-03T05:45:35.728Z,12.1
2017-09-03T05:46:35.425Z,12.36
2017-09-03T05:47:35.803Z,12.53
2017-09-03T05:48:35.825Z,12.74
2017-09-03T05:49:35.850Z,13.02
2017-09-03T05:50:35.892Z,13.17
2017-09-03T05:51:35.927Z,13.45
2017-09-03T05:52:35.652Z,13.54
2017-09-03T05:53:35.990Z,13.63
2017-09-03T05:54:36.023Z,13.62
2017-09-03T05:55:35.402Z,13.68
2017-09-03T05:56:35.738Z,13.72
2017-09-03T05:57:36.738Z,13.69
2017-09-03T05:58:36.427Z,13.84
2017-09-03T05:59:36.789Z,13.9
2017-09-03T06:00:36.813Z,14.06
2017-09-03T06:01:36.883Z,14.12
2017-09-03T06:02:36.550Z,14.23
2017-09-03T06:03:36.914Z,14.34
2017-09-03T06:04:36.940Z,14.61
2017-09-03T06:05:36.653Z,14.83
2017-09-03T06:06:37.324Z,15.16
2017-09-03T06:07:37.020Z,15.37
2017-09-03T06:08:37.394Z,15.74
2017-09-03T06:09:37.420Z,15.93
2017-09-03T06:10:37.118Z,16.3
2017-09-03T06:11:37.771Z,16.85
2017-09-03T06:12:37.824Z,17.32
2017-09-03T06:13:37.856Z,18.03
2017-09-03T06:14:37.576Z,18.78
2017-09-03T06:15:37.603Z,19.5
2017-09-03T06:16:37.654Z,20.18
2017-09-03T06:17:38.001Z,21.08
2017-09-03T06:18:38.026Z,21.67
2017-09-03T06:19:38.359Z,22.27
2017-09-03T06:20:38.393Z,22.66
2017-09-03T06:21:38.426Z,22.91
2017-09-03T06:22:38.464Z,23.22
2017-09-03T06:23:38.494Z,23.32
2017-09-03T06:24:38.531Z,23.32
2017-09-03T06:25:38.562Z,23.29
2017-09-03T06:26:38.612Z,23.35
2017-09-03T06:27:38.330Z,23.24
2017-09-03T06:28:38.339Z,23.16
2017-09-03T06:29:38.709Z,22.81
2017-09-03T06:30:38.748Z,22.29
2017-09-03T06:31:38.780Z,21.94
2017-09-03T06:32:38.823Z,21.67
2017-09-03T06:33:38.859Z,21.66
2017-09-03T06:34:38.587Z,21.52
2017-09-03T06:35:38.934Z,21.28
2017-09-03T06:36:38.647Z,21.13
2017-09-03T06:37:38.999Z,20.74
2017-09-03T06:38:39.342Z,20.4
2017-09-03T06:39:39.378Z,20.23
2017-09-03T06:40:39.409Z,20.02
2017-09-03T06:41:39.458Z,19.74
2017-09-03T06:42:39.487Z,19.75
2017-09-03T06:43:39.522Z,19.5
2017-09-03T06:44:39.558Z,19.27
2017-09-03T06:45:39.285Z,19
2017-09-03T06:46:39.310Z,18.63
2017-09-03T06:47:39.063Z,18.5
2017-09-03T06:48:39.743Z,18.47
2017-09-03T06:49:39.726Z,18.23
2017-09-03T06:50:39.792Z,18.26
2017-09-03T06:51:39.495Z,18.23
2017-09-03T06:52:39.844Z,18.45
2017-09-03T06:53:39.233Z,18.6
2017-09-03T06:54:39.915Z,18.74
2017-09-03T06:55:39.943Z,18.69
2017-09-03T06:56:39.319Z,18.66
2017-09-03T06:57:40.331Z,18.65
2017-09-03T06:58:40.949Z,18.68
2017-09-03T06:59:40.721Z,18.81
2017-09-03T07:00:40.132Z,19.27
2017-09-03T07:01:40.784Z,19.64
2017-09-03T07:02:41.221Z,19.7
2017-09-03T07:03:40.864Z,19.82
2017-09-03T07:04:41.210Z,19.92
2017-09-03T07:05:40.941Z,20.08
2017-09-03T07:06:40.982Z,20.41
2017-09-03T07:07:41.269Z,20.56
2017-09-03T07:08:41.047Z,20.58
2017-09-03T07:09:41.722Z,20.88
2017-09-03T07:10:41.729Z,21.09
2017-09-03T07:11:41.778Z,21.45
2017-09-03T07:12:41.503Z,21.83
2017-09-03T07:13:41.510Z,22.18
2017-09-03T07:14:41.870Z,22.52
2017-09-03T07:15:41.584Z,23.04
2017-09-03T07:16:41.912Z,23.59
2017-09-03T07:17:41.690Z,24.18
2017-09-03T07:18:41.736Z,24.9
2017-09-03T07:19:41.807Z,25.47
2017-09-03T07:20:42.120Z,26.24
2017-09-03T07:21:41.866Z,26.82
2017-09-03T07:22:42.174Z,26.87
2017-09-03T07:23:42.263Z,26.68
2017-09-03T07:24:42.009Z,26.49
2017-09-03T07:25:42.071Z,26.27
2017-09-03T07:26:42.386Z,26.34
2017-09-03T07:27:42.463Z,26.67
2017-09-03T07:28:42.474Z,26.78
2017-09-03T07:29:42.214Z,26.57
2017-09-03T07:30:42.553Z,26.11
2017-09-03T07:31:42.245Z,25.88
2017-09-03T07:32:42.276Z,25.75
2017-09-03T07:33:42.648Z,25.76
2017-09-03T07:34:42.686Z,26.17
2017-09-03T07:35:42.718Z,26.74
2017-09-03T07:36:42.120Z,27.28
2017-09-03T07:37:42.501Z,27.49
2017-09-03T07:38:43.183Z,27.18
2017-09-03T07:39:43.251Z,26.93
2017-09-03T07:40:43.262Z,26.67
2017-09-03T07:41:43.329Z,26.6
2017-09-03T07:42:43.691Z,26.75
2017-09-03T07:43:43.431Z,27.04
2017-09-03T07:44:43.476Z,27.46
2017-09-03T07:45:43.535Z,27.94
2017-09-03T07:46:43.888Z,28.42
2017-09-03T07:47:43.922Z,28.36
2017-09-03T07:48:44.262Z,28.12
2017-09-03T07:49:43.980Z,27.62
2017-09-03T07:50:43.999Z,27.24
2017-09-03T07:51:44.700Z,27.04
2017-09-03T07:52:44.710Z,27.12
2017-09-03T07:53:44.437Z,27.26
2017-09-03T07:54:45.028Z,27.33
2017-09-03T07:55:44.512Z,27.51
2017-09-03T07:56:44.866Z,27.8
2017-09-03T07:57:44.570Z,28.06
2017-09-03T07:58:44.962Z,28.2
2017-09-03T07:59:44.985Z,28.36
2017-09-03T08:00:45.015Z,28.48
2017-09-03T08:01:45.047Z,28.42
2017-09-03T08:02:45.237Z,28.18
2017-09-03T08:03:44.843Z,28.01
2017-09-03T08:04:44.889Z,28.31
2017-09-03T08:05:45.284Z,28.72
2017-09-03T08:06:44.982Z,29.11
2017-09-03T08:07:45.017Z,29.1
2017-09-03T08:08:45.411Z,29.35
2017-09-03T08:09:45.464Z,30.07
2017-09-03T08:10:45.133Z,30.67
2017-09-03T08:11:45.185Z,31.33
2017-09-03T08:12:45.533Z,32.03
2017-09-03T08:13:46.113Z,32.86
2017-09-03T08:14:45.610Z,33.68
2017-09-03T08:15:45.672Z,34.39
2017-09-03T08:16:46.311Z,35.08
2017-09-03T08:17:46.030Z,35.4
2017-09-03T08:18:46.135Z,35.77
2017-09-03T08:19:46.459Z,35.99
2017-09-03T08:20:46.494Z,36.25
2017-09-03T08:21:46.506Z,36.52
2017-09-03T08:22:46.267Z,36.78
2017-09-03T08:23:46.971Z,37.19
2017-09-03T08:24:46.692Z,37.27
2017-09-03T08:25:47.047Z,37.45
2017-09-03T08:26:47.076Z,37.49
2017-09-03T08:27:47.117Z,37.68
2017-09-03T08:28:47.166Z,37.88
2017-09-03T08:29:47.199Z,37.96
2017-09-03T08:30:47.254Z,37.94
2017-09-03T08:31:47.292Z,37.76
2017-09-03T08:32:46.997Z,37.93
2017-09-03T08:33:47.388Z,38.1
2017-09-03T08:34:47.114Z,38.25
2017-09-03T08:35:47.480Z,38.35
2017-09-03T08:36:47.557Z,38.21
2017-09-03T08:37:47.216Z,38.13
2017-09-03T08:38:47.594Z,38.15
2017-09-03T08:39:47.342Z,38.17
2017-09-03T08:40:47.379Z,38.36
2017-09-03T08:41:47.772Z,38.46
2017-09-03T08:42:47.811Z,38.52
2017-09-03T08:43:47.863Z,38.44
2017-09-03T08:44:47.913Z,38.49
2017-09-03T08:45:47.943Z,38.74
2017-09-03T08:46:47.632Z,39.06
2017-09-03T08:47:48.029Z,39
2017-09-03T08:48:48.386Z,38.83
2017-09-03T08:49:48.428Z,38.92
2017-09-03T08:50:48.161Z,38.81
2017-09-03T08:51:48.203Z,38.81
2017-09-03T08:52:48.278Z,39.16
2017-09-03T08:53:48.607Z,39.49
2017-09-03T08:54:48.685Z,39.65
2017-09-03T08:55:49.040Z,39.69
2017-09-03T08:56:49.099Z,39.74
2017-09-03T08:57:48.798Z,39.69
2017-09-03T08:58:49.169Z,39.86
2017-09-03T08:59:49.217Z,40.22
2017-09-03T09:00:49.265Z,40.41
2017-09-03T09:01:49.327Z,40.72
2017-09-03T09:02:49.523Z,40.54
2017-09-03T09:03:49.414Z,39.28
2017-09-03T09:04:49.443Z,38.03
2017-09-03T09:05:49.513Z,37.24
2017-09-03T09:06:49.220Z,36.55
2017-09-03T09:07:49.621Z,35.77
2017-09-03T09:08:49.317Z,35.11
2017-09-03T09:09:49.701Z,34.26
2017-09-03T09:10:49.416Z,33.31
2017-09-03T09:11:49.811Z,32.23
2017-09-03T09:12:50.165Z,31.6
2017-09-03T09:13:50.215Z,31.21
2017-09-03T09:14:50.231Z,31.1
2017-09-03T09:15:49.956Z,31.19
2017-09-03T09:16:49.698Z,31.47
2017-09-03T09:17:50.700Z,31.9
2017-09-03T09:18:50.744Z,32.45
2017-09-03T09:19:50.772Z,32.89
2017-09-03T09:20:51.107Z,33.13
2017-09-03T09:21:50.834Z,33.58
2017-09-03T09:22:51.192Z,33.89
2017-09-03T09:23:50.896Z,34.14
2017-09-03T09:24:50.970Z,33.93
2017-09-03T09:25:51.324Z,34.11
2017-09-03T09:26:51.057Z,34
2017-09-03T09:27:51.082Z,33.58
2017-09-03T09:28:51.498Z,33.58
2017-09-03T09:29:51.520Z,34.08
2017-09-03T09:30:51.268Z,34.64
2017-09-03T09:31:51.609Z,35.18
2017-09-03T09:32:51.345Z,35.13
2017-09-03T09:33:52.113Z,34.43
2017-09-03T09:34:52.168Z,33.61
2017-09-03T09:35:52.061Z,33.74
2017-09-03T09:36:52.083Z,34.52
2017-09-03T09:37:52.128Z,35.34
2017-09-03T09:38:52.482Z,35.87
2017-09-03T09:39:52.543Z,36.47
2017-09-03T09:40:52.578Z,36.99
2017-09-03T09:41:51.976Z,37.3
2017-09-03T09:42:52.020Z,37.39
2017-09-03T09:43:52.728Z,37.45
2017-09-03T09:44:52.415Z,37.44
2017-09-03T09:45:52.163Z,37.54
2017-09-03T09:46:52.206Z,37.57
2017-09-03T09:47:53.216Z,37.42
2017-09-03T09:48:53.590Z,37.51
2017-09-03T09:49:53.638Z,37.36
2017-09-03T09:50:53.333Z,36.56
2017-09-03T09:51:53.654Z,35.28
2017-09-03T09:52:54.031Z,33.84
2017-09-03T09:53:53.737Z,32.45
2017-09-03T09:54:54.105Z,31.3
2017-09-03T09:55:54.157Z,30.26
2017-09-03T09:56:53.861Z,29.42
2017-09-03T09:57:54.242Z,28.92
2017-09-03T09:58:54.289Z,29.39
2017-09-03T09:59:54.023Z,30.47
2017-09-03T10:00:53.741Z,31.72
2017-09-03T10:01:54.431Z,32.69
2017-09-03T10:02:54.206Z,33.44
2017-09-03T10:03:54.534Z,34.29
2017-09-03T10:04:54.552Z,34.86
2017-09-03T10:05:54.240Z,35.2
2017-09-03T10:06:54.615Z,35.6
2017-09-03T10:07:55.300Z,35.84
2017-09-03T10:08:55.346Z,36.21
2017-09-03T10:09:55.385Z,36.49
2017-09-03T10:10:55.120Z,36.93
2017-09-03T10:11:55.153Z,37.48
2017-09-03T10:12:55.189Z,38.06
2017-09-03T10:13:55.555Z,38.68
2017-09-03T10:14:55.910Z,38.9
2017-09-03T10:15:55.642Z,39.3
2017-09-03T10:16:55.984Z,39.52
2017-09-03T10:17:55.733Z,39.76
2017-09-03T10:18:56.081Z,39.97
2017-09-03T10:19:56.109Z,40.02
2017-09-03T10:20:56.780Z,39.81
2017-09-03T10:21:56.820Z,39.46
2017-09-03T10:22:56.872Z,39.15
2017-09-03T10:23:56.272Z,38.81
2017-09-03T10:24:56.951Z,38.54
2017-09-03T10:25:56.703Z,37.68
2017-09-03T10:26:56.702Z,36.46
2017-09-03T10:27:57.094Z,35.34
2017-09-03T10:28:57.125Z,34.12
2017-09-03T10:29:56.836Z,33.69
2017-09-03T10:30:57.210Z,33.87
2017-09-03T10:31:57.239Z,34.19
2017-09-03T10:32:57.286Z,34.66
2017-09-03T10:33:57.329Z,35.16
2017-09-03T10:34:57.362Z,35.62
2017-09-03T10:35:57.409Z,36.09
2017-09-03T10:36:57.117Z,36.53
2017-09-03T10:37:57.481Z,36.71
2017-09-03T10:38:57.191Z,36.83
2017-09-03T10:39:57.886Z,36.7
2017-09-03T10:40:57.913Z,35.99
2017-09-03T10:41:57.954Z,36.01
2017-09-03T10:42:57.656Z,36.4
2017-09-03T10:43:58.033Z,36.7
2017-09-03T10:44:57.726Z,36.95
2017-09-03T10:45:58.081Z,37.31
2017-09-03T10:46:58.108Z,37.56
2017-09-03T10:47:58.490Z,37.69
2017-09-03T10:48:58.533Z,37.88
2017-09-03T10:49:58.225Z,37.96
2017-09-03T10:50:58.604Z,38.05
2017-09-03T10:51:58.007Z,37.93
2017-09-03T10:52:58.989Z,37.51
2017-09-03T10:53:59.030Z,37.17
2017-09-03T10:54:59.068Z,36.71
2017-09-03T10:55:58.779Z,35.79
2017-09-03T10:56:58.808Z,35.45
2017-09-03T10:57:58.851Z,35.08
2017-09-03T10:58:58.581Z,34.39
2017-09-03T10:59:59.281Z,33.18
2017-09-03T11:00:58.675Z,31.86
2017-09-03T11:01:59.308Z,30.71
2017-09-03T11:02:59.358Z,29.84
2017-09-03T11:04:00.041Z,29.21
2017-09-03T11:05:00.082Z,28.51
2017-09-03T11:06:00.110Z,28.01
2017-09-03T11:07:00.160Z,27.72
2017-09-03T11:08:00.198Z,28.09
2017-09-03T11:08:59.929Z,28.72
2017-09-03T11:09:59.912Z,29.63
2017-09-03T11:11:00.655Z,30.29
2017-09-03T11:12:00.704Z,31
2017-09-03T11:13:00.407Z,31.72
2017-09-03T11:14:00.452Z,32.39
2017-09-03T11:15:01.093Z,32.47
2017-09-03T11:16:01.139Z,32.46
2017-09-03T11:17:01.157Z,32.62
2017-09-03T11:18:01.185Z,32.64
2017-09-03T11:19:01.240Z,32.84
2017-09-03T11:20:01.286Z,33.03
2017-09-03T11:21:01.300Z,33.43
2017-09-03T11:22:01.350Z,33.78
2017-09-03T11:23:01.081Z,34.24
2017-09-03T11:24:01.433Z,34.4
2017-09-03T11:25:01.461Z,34.52
2017-09-03T11:26:01.490Z,34.69
2017-09-03T11:27:01.539Z,34.84
2017-09-03T11:28:01.235Z,35.08
2017-09-03T11:29:01.582Z,35.33
2017-09-03T11:30:02.575Z,35.71
2017-09-03T11:31:02.604Z,35.6
2017-09-03T11:32:02.948Z,34.83
2017-09-03T11:33:02.673Z,34.29
2017-09-03T11:34:03.018Z,34.05
2017-09-03T11:35:03.086Z,33.66
2017-09-03T11:36:02.455Z,33.24
2017-09-03T11:37:02.491Z,33.24
2017-09-03T11:38:03.174Z,32.81
2017-09-03T11:39:02.877Z,32.24
2017-09-03T11:40:03.251Z,32.25
2017-09-03T11:41:03.294Z,32.5
2017-09-03T11:42:03.338Z,32.49
2017-09-03T11:43:03.355Z,32.01
2017-09-03T11:44:03.397Z,31.67
2017-09-03T11:45:03.480Z,30.88
2017-09-03T11:46:03.148Z,30.13
2017-09-03T11:47:03.799Z,29.2
2017-09-03T11:48:03.817Z,28.38
2017-09-03T11:49:04.172Z,27.55
2017-09-03T11:50:04.902Z,26.63
2017-09-03T11:51:04.895Z,26
2017-09-03T11:52:04.921Z,25.45
2017-09-03T11:53:04.977Z,24.92
2017-09-03T11:54:05.017Z,24.56
2017-09-03T11:55:05.075Z,24.4
2017-09-03T11:56:05.088Z,24.27
2017-09-03T11:57:05.109Z,24.04
2017-09-03T11:58:04.826Z,23.64
2017-09-03T11:59:05.203Z,23.32
2017-09-03T12:00:04.966Z,22.92
2017-09-03T12:01:05.645Z,22.61
2017-09-03T12:02:05.363Z,22.44
2017-09-03T12:03:05.084Z,22.29
2017-09-03T12:04:05.424Z,22.29
2017-09-03T12:05:05.808Z,22.23
2017-09-03T12:06:05.824Z,22.18
2017-09-03T12:07:05.533Z,22.11
2017-09-03T12:08:05.966Z,22.12
2017-09-03T12:09:06.047Z,22.34
2017-09-03T12:10:05.338Z,22.42
2017-09-03T12:11:06.333Z,22.41
2017-09-03T12:12:06.063Z,22.52
2017-09-03T12:13:06.406Z,22.44
2017-09-03T12:14:06.439Z,22.39
2017-09-03T12:15:06.184Z,22.44
2017-09-03T12:16:06.505Z,22.39
2017-09-03T12:17:06.547Z,22.29
2017-09-03T12:18:06.593Z,22.14
2017-09-03T12:19:06.626Z,22.27
2017-09-03T12:20:06.730Z,22.3
2017-09-03T12:21:06.701Z,22.3
2017-09-03T12:22:06.403Z,22.31
2017-09-03T12:23:07.043Z,22.14
2017-09-03T12:24:06.766Z,22.02
2017-09-03T12:25:07.444Z,21.83
2017-09-03T12:26:07.173Z,21.67
2017-09-03T12:27:07.544Z,21.56
2017-09-03T12:28:07.566Z,21.4
2017-09-03T12:29:07.914Z,21.34
2017-09-03T12:30:07.943Z,21.31
2017-09-03T12:31:07.975Z,21.22
2017-09-03T12:32:08.308Z,21.04
2017-09-03T12:33:08.064Z,21.08
2017-09-03T12:34:08.404Z,20.98
2017-09-03T12:35:08.122Z,21.01
2017-09-03T12:36:08.165Z,21.12
2017-09-03T12:37:09.144Z,21.23
2017-09-03T12:38:09.163Z,21.19
2017-09-03T12:39:09.217Z,21.23
2017-09-03T12:40:09.284Z,21.28
2017-09-03T12:41:09.288Z,21.28
2017-09-03T12:42:09.328Z,21.21
2017-09-03T12:43:09.358Z,21.34
2017-09-03T12:44:09.096Z,21.25
2017-09-03T12:45:09.697Z,21.38
2017-09-03T12:46:09.472Z,21.43
2017-09-03T12:47:09.521Z,21.31
2017-09-03T12:48:09.539Z,21.45
2017-09-03T12:49:09.579Z,21.48
2017-09-03T12:50:09.615Z,21.59
2017-09-03T12:51:09.340Z,21.67
2017-09-03T12:52:09.338Z,21.93
2017-09-03T12:53:09.729Z,22.26
2017-09-03T12:54:10.064Z,22.42
2017-09-03T12:55:10.096Z,22.41
2017-09-03T12:56:10.135Z,22.48
2017-09-03T12:57:10.169Z,22.7
2017-09-03T12:58:09.564Z,22.97
2017-09-03T12:59:10.201Z,23.06